Time;durP1;ratioP1;P1;durP2;ratioP2;P2;SDS_P1;SDS_P2;PMS_P1;PMS_P2;Temp;Humidity;BMP_temperature;BMP_pressure;BME280_temperature;BME280_humidity;BME280_pressure;Samples;Min_cycle;Max_cycle;Signal;HPM_P1;HPM_P2
2022/06/29 00:01:47;;;;;;;;;10.67;8.33;;;;;23.08;37.79;100937.16;5033621;28;45207;-70
2022/06/29 00:04:12;;;;;;;;;5.33;5.33;;;;;23.33;37.89;100992.91;5031825;28;45195;-70
2022/06/29 00:06:38;;;;;;;;;5.67;4.67;;;;;23.33;37.95;100990.19;5033825;28;45887;-70
2022/06/29 00:09:03;;;;;;;;;7.33;5.00;;;;;23.32;38.16;100982.03;5033876;28;45049;-70
2022/06/29 00:11:28;;;;;;;;;3.00;3.00;;;;;23.32;38.47;100982.03;5034089;28;45090;-70
2022/06/29 00:13:54;;;;;;;;;3.67;3.67;;;;;23.30;38.10;100976.63;5031849;28;45964;-70
2022/06/29 00:16:19;;;;;;;;;4.33;4.33;;;;;23.07;38.32;100935.38;5033350;28;44959;-69
2022/06/29 00:18:45;;;;;;;;;4.67;4.67;;;;;23.26;38.67;100979.44;5031321;28;45140;-70
2022/06/29 00:21:10;;;;;;;;;7.00;4.67;;;;;23.23;38.76;100977.72;5032105;28;45080;-71
2022/06/29 00:23:35;;;;;;;;;4.00;3.00;;;;;22.98;38.82;100945.50;5033111;28;47814;-72
2022/06/29 00:26:01;;;;;;;;;6.67;4.00;;;;;23.15;39.23;100983.31;5032705;28;45187;-70
2022/06/29 00:28:26;;;;;;;;;6.00;4.33;;;;;23.15;39.20;100986.03;5033870;28;44979;-71
2022/06/29 00:30:52;;;;;;;;;7.00;5.67;;;;;22.99;39.25;100954.56;5032483;28;45092;-71
2022/06/29 00:33:17;;;;;;;;;5.00;5.00;;;;;23.11;39.53;100984.31;5032581;28;45867;-71
2022/06/29 00:35:42;;;;;;;;;3.67;3.00;;;;;22.90;39.60;100947.50;5034349;28;45293;-71
2022/06/29 00:38:08;;;;;;;;;3.00;3.00;;;;;22.78;39.88;100939.56;5032764;28;45165;-71
2022/06/29 00:40:33;;;;;;;;;4.67;3.33;;;;;22.69;39.93;100927.06;5030907;28;45120;-71
2022/06/29 00:42:58;;;;;;;;;7.00;5.00;;;;;22.94;40.33;100970.13;5034012;28;45776;-71
2022/06/29 00:45:24;;;;;;;;;2.00;2.00;;;;;22.43;40.72;100893.09;5033694;28;45043;-71
2022/06/29 00:47:49;;;;;;;;;4.00;3.00;;;;;22.85;41.05;100967.59;5032774;28;45374;-81
2022/06/29 00:50:14;;;;;;;;;2.00;2.00;;;;;22.79;41.34;100971.34;5031002;28;45166;-72
2022/06/29 00:52:42;;;;;;;;;4.00;3.00;;;;;22.77;41.54;100971.38;5028069;28;45613;-71
2022/06/29 00:55:11;;;;;;;;;5.00;3.00;;;;;22.55;41.67;100934.59;5030725;28;45252;-70
2022/06/29 00:57:42;;;;;;;;;3.00;3.00;;;;;22.72;41.78;100958.75;5030531;28;45405;-71
2022/06/29 01:00:09;;;;;;;;;3.00;3.00;;;;;22.73;41.92;100958.72;5029884;28;45187;-72
2022/06/29 01:02:34;;;;;;;;;2.33;2.33;;;;;22.58;42.35;100938.16;5032475;28;45915;-74
2022/06/29 01:05:00;;;;;;;;;2.33;2.33;;;;;22.14;42.23;100869.16;5029217;28;45741;-75
2022/06/29 01:07:28;;;;;;;;;6.33;3.00;;;;;22.68;41.92;100966.09;5029321;28;45164;-71
2022/06/29 01:09:54;;;;;;;;;4.67;3.00;;;;;22.67;42.24;100955.25;5030416;28;45210;-77
2022/06/29 01:12:20;;;;;;;;;3.67;3.33;;;;;22.45;42.46;100928.44;5028803;28;46121;-70
2022/06/29 01:14:47;;;;;;;;;3.00;2.00;;;;;22.63;42.47;100966.19;5027997;28;46121;-70
2022/06/29 01:17:13;;;;;;;;;3.00;3.00;;;;;22.61;42.64;100964.44;5032953;28;44949;-70
2022/06/29 01:19:40;;;;;;;;;6.33;4.00;;;;;22.61;42.66;100959.00;5032325;28;44983;-70
2022/06/29 01:22:08;;;;;;;;;3.00;3.00;;;;;22.44;42.91;100943.91;5032640;28;45825;-71
2022/06/29 01:24:33;;;;;;;;;2.33;2.33;;;;;22.55;42.82;100960.00;5031219;28;44950;-70
2022/06/29 01:27:02;;;;;;;;;2.67;2.67;;;;;22.52;43.00;100962.81;5031214;28;45060;-72
2022/06/29 01:29:29;;;;;;;;;5.00;3.00;;;;;22.48;43.30;100961.06;5033313;28;45080;-70
2022/06/29 01:31:55;;;;;;;;;4.33;4.33;;;;;22.31;43.12;100945.06;5032632;28;45452;-75
2022/06/29 01:34:22;;;;;;;;;6.33;4.00;;;;;22.17;43.26;100920.78;5028558;28;45192;-72
2022/06/29 01:36:48;;;;;;;;;2.00;2.00;;;;;22.21;43.62;100925.25;5027883;28;45660;-71
2022/06/29 01:39:14;;;;;;;;;3.33;2.00;;;;;22.36;43.53;100959.47;5032568;28;45120;-75
2022/06/29 01:41:39;;;;;;;;;3.00;3.00;;;;;22.34;43.66;100957.69;5031470;28;45477;-71
2022/06/29 01:44:04;;;;;;;;;4.00;2.00;;;;;22.02;43.93;100921.06;5031762;28;44938;-69
2022/06/29 01:46:30;;;;;;;;;4.67;1.33;;;;;22.27;43.79;100957.81;5031789;28;45139;-70
2022/06/29 01:48:55;;;;;;;;;3.00;3.00;;;;;22.25;43.85;100962.34;5033261;28;45006;-70
2022/06/29 01:51:21;;;;;;;;;3.33;2.00;;;;;22.24;43.87;100954.22;5032765;28;46396;-71
2022/06/29 01:53:46;;;;;;;;;2.67;2.67;;;;;22.23;43.96;100956.06;5027502;28;45384;-72
2022/06/29 01:56:11;;;;;;;;;2.33;2.33;;;;;22.22;43.66;100964.25;5032396;28;45115;-71
2022/06/29 01:58:37;;;;;;;;;1.33;1.33;;;;;22.20;43.90;100953.38;5032546;28;45167;-70
2022/06/29 02:01:02;;;;;;;;;7.00;2.00;;;;;21.98;44.12;100939.28;5028903;28;45645;-70
2022/06/29 02:03:27;;;;;;;;;2.67;2.67;;;;;21.97;43.98;100950.19;5031482;28;45242;-70
2022/06/29 02:05:53;;;;;;;;;1.00;1.00;;;;;21.98;44.10;100954.72;5032392;28;45032;-79
2022/06/29 02:08:18;;;;;;;;;3.67;2.00;;;;;21.78;43.92;100928.75;5032905;28;45079;-70
2022/06/29 02:10:43;;;;;;;;;2.00;2.00;;;;;21.90;43.95;100955.72;5029225;28;46520;-71
2022/06/29 02:13:09;;;;;;;;;2.00;2.00;;;;;21.89;43.89;100969.34;5031779;28;45173;-73
2022/06/29 02:15:34;;;;;;;;;3.00;1.00;;;;;21.62;44.10;100921.78;5031510;28;45288;-71
2022/06/29 02:18:01;;;;;;;;;5.00;1.00;;;;;21.82;43.90;100956.78;5029665;28;45226;-73
2022/06/29 02:20:26;;;;;;;;;2.67;2.67;;;;;21.62;44.08;100930.81;5030646;28;45818;-70
2022/06/29 02:22:51;;;;;;;;;1.00;1.00;;;;;21.71;44.01;100949.72;5032065;28;45246;-70
2022/06/29 02:25:17;;;;;;;;;5.33;3.33;;;;;21.72;44.21;100948.78;5032259;28;45157;-71
2022/06/29 02:27:45;;;;;;;;;2.00;2.00;;;;;21.49;44.51;100934.66;5031162;28;45032;-71
2022/06/29 02:30:14;;;;;;;;;3.00;2.00;;;;;21.63;44.56;100951.66;5024841;28;46304;-71
2022/06/29 02:35:25;;;;;;;;;1.00;1.00;;;;;21.56;44.62;100949.06;5031268;28;45183;-73
2022/06/29 02:37:51;;;;;;;;;1.33;1.33;;;;;21.52;44.49;100953.66;5031471;28;45045;-70
2022/06/29 02:40:16;;;;;;;;;2.00;2.00;;;;;21.46;44.76;100935.56;5031258;28;50309;-70
2022/06/29 02:42:41;;;;;;;;;2.00;2.00;;;;;21.39;44.69;100933.88;5029090;28;45168;-71
2022/06/29 02:45:07;;;;;;;;;3.00;1.00;;;;;21.47;44.59;100940.13;5030346;28;45028;-71
2022/06/29 02:47:33;;;;;;;;;2.33;1.33;;;;;21.35;44.69;100916.72;5026481;28;45381;-70
2022/06/29 02:49:58;;;;;;;;;1.00;1.00;;;;;21.50;44.87;100939.19;5028705;28;45468;-70
2022/06/29 02:52:24;;;;;;;;;2.00;2.00;;;;;21.37;44.82;100919.41;5031531;28;45093;-71
2022/06/29 02:54:49;;;;;;;;;6.33;2.33;;;;;21.50;44.96;100939.19;5031439;28;45013;-71
2022/06/29 02:57:14;;;;;;;;;4.00;2.00;;;;;21.39;45.18;100919.41;5030273;28;45358;-70
2022/06/29 02:59:39;;;;;;;;;8.00;7.00;;;;;21.30;45.06;100910.47;5032888;28;45608;-70
2022/06/29 03:02:05;;;;;;;;;1.67;1.67;;;;;21.47;45.22;100931.97;5032321;28;45255;-70
2022/06/29 03:04:31;;;;;;;;;2.00;2.00;;;;;21.44;45.41;100939.25;5032298;28;45410;-70
2022/06/29 03:06:56;;;;;;;;;1.00;1.00;;;;;21.35;45.30;100927.59;5031082;28;45473;-71
2022/06/29 03:09:22;;;;;;;;;1.00;1.00;;;;;21.34;45.23;100930.34;5047607;28;47310;-70
2022/06/29 03:11:47;;;;;;;;;0.67;0.67;;;;;21.07;45.13;100897.22;5030001;28;45384;-70
2022/06/29 03:14:12;;;;;;;;;2.33;1.00;;;;;21.20;45.08;100916.97;5031458;28;45827;-70
2022/06/29 03:16:38;;;;;;;;;3.00;3.00;;;;;21.32;45.19;100943.06;5029212;28;45223;-69
2022/06/29 03:19:03;;;;;;;;;2.00;2.00;;;;;21.32;45.03;100941.22;5031228;28;45595;-71
2022/06/29 03:21:29;;;;;;;;;6.33;2.67;;;;;20.90;44.62;100863.97;5031081;28;45530;-71
2022/06/29 03:23:54;;;;;;;;;3.00;3.00;;;;;21.24;44.76;100948.59;5032495;28;45331;-70
2022/06/29 03:26:19;;;;;;;;;2.00;2.00;;;;;21.24;44.71;100945.88;5032607;28;45104;-70
2022/06/29 03:28:45;;;;;;;;;3.67;2.00;;;;;21.21;44.98;100942.31;5033395;28;45222;-72
2022/06/29 03:31:11;;;;;;;;;1.00;1.00;;;;;21.01;44.92;100908.16;5031395;28;45925;-70
2022/06/29 03:33:36;;;;;;;;;0.00;0.00;;;;;21.05;45.17;100915.38;5030977;28;45551;-70
2022/06/29 03:36:02;;;;;;;;;2.33;2.33;;;;;21.11;45.44;100923.41;5032397;28;45101;-70
2022/06/29 03:38:27;;;;;;;;;2.00;2.00;;;;;20.69;45.31;100844.34;5032229;28;46416;-70
2022/06/29 03:40:52;;;;;;;;;5.67;2.67;;;;;20.76;45.11;100856.91;5029478;28;48563;-71
2022/06/29 03:43:18;;;;;;;;;3.67;3.33;;;;;21.15;45.21;100918.81;5034676;28;45195;-71
2022/06/29 03:45:43;;;;;;;;;5.67;4.00;;;;;21.22;44.97;100927.78;5032976;28;45195;-69
2022/06/29 03:48:08;;;;;;;;;3.00;3.00;;;;;21.02;45.33;100890.03;5032996;28;46306;-70
2022/06/29 03:50:34;;;;;;;;;9.75;9.00;;;;;21.22;45.29;100925.97;5033842;28;45030;-70
2022/06/29 03:52:59;;;;;;;;;4.00;3.00;;;;;21.23;45.42;100937.75;5034187;28;45091;-71
2022/06/29 03:55:25;;;;;;;;;3.67;2.67;;;;;21.07;45.16;100901.72;5032816;28;45124;-71
2022/06/29 03:57:50;;;;;;;;;3.00;3.00;;;;;21.19;45.19;100925.13;5034153;28;45611;-71
2022/06/29 04:00:16;;;;;;;;;2.67;2.67;;;;;21.19;45.36;100927.84;5033883;28;44951;-70
2022/06/29 04:02:42;;;;;;;;;3.00;1.33;;;;;21.15;45.35;100922.47;5034070;28;45037;-71
2022/06/29 04:05:08;;;;;;;;;5.00;3.33;;;;;21.21;45.28;100932.31;5033881;28;45277;-70
2022/06/29 04:07:33;;;;;;;;;1.67;1.67;;;;;21.10;45.33;100918.91;5032715;28;45049;-70
2022/06/29 04:10:02;;;;;;;;;3.67;3.00;;;;;21.15;44.94;100913.38;5033095;28;45378;-70
2022/06/29 04:12:32;;;;;;;;;4.67;4.00;;;;;21.24;45.53;100931.41;5032389;28;45025;-70
2022/06/29 04:14:58;;;;;;;;;5.33;3.00;;;;;21.15;45.16;100914.31;5033640;28;45345;-71
2022/06/29 04:17:24;;;;;;;;;5.33;4.00;;;;;21.26;45.68;100934.97;5033466;28;45001;-71
2022/06/29 04:19:52;;;;;;;;;4.00;4.00;;;;;21.23;45.76;100927.75;5025410;28;45076;-71
2022/06/29 04:22:19;;;;;;;;;5.00;5.00;;;;;21.27;45.85;100928.63;5033848;28;44971;-71
2022/06/29 04:24:45;;;;;;;;;2.00;0.67;;;;;21.14;45.87;100906.19;5033477;28;44906;-70
2022/06/29 04:27:10;;;;;;;;;6.00;3.67;;;;;21.14;46.00;100907.06;5032926;28;46038;-72
2022/06/29 04:29:36;;;;;;;;;3.00;3.00;;;;;21.22;46.20;100935.94;5030981;28;45363;-70
2022/06/29 04:32:02;;;;;;;;;4.33;4.33;;;;;21.04;46.46;100902.69;5048300;28;45151;-70
2022/06/29 04:34:28;;;;;;;;;3.67;3.67;;;;;20.82;46.48;100868.59;5033088;28;45176;-70
2022/06/29 04:36:53;;;;;;;;;4.33;4.33;;;;;21.16;46.18;100931.50;5033018;28;45751;-70
2022/06/29 04:39:19;;;;;;;;;4.67;3.00;;;;;21.17;46.36;100927.88;5031452;28;45136;-71
2022/06/29 04:41:45;;;;;;;;;3.00;3.00;;;;;21.04;46.53;100897.25;5031721;28;45563;-71
2022/06/29 04:44:10;;;;;;;;;9.33;8.00;;;;;21.19;47.15;100923.31;5033561;28;45002;-71
2022/06/29 04:46:35;;;;;;;;;6.00;4.33;;;;;21.19;47.37;100923.31;5036419;28;45311;-71
2022/06/29 04:49:02;;;;;;;;;6.00;6.00;;;;;21.11;46.84;100895.34;5031619;28;45149;-70
2022/06/29 04:51:31;;;;;;;;;5.00;4.33;;;;;21.20;47.39;100908.81;5031593;28;45131;-72
2022/06/29 04:53:58;;;;;;;;;6.00;4.00;;;;;21.15;47.50;100899.81;5033279;28;45057;-78
2022/06/29 04:56:26;;;;;;;;;4.67;4.67;;;;;20.87;47.53;100843.19;5029536;28;45685;-72
2022/06/29 04:58:53;;;;;;;;;4.00;2.33;;;;;21.24;47.22;100915.97;5032236;28;45138;-71
2022/06/29 05:01:22;;;;;;;;;7.00;6.00;;;;;21.17;47.45;100904.31;5030956;28;45295;-70
2022/06/29 05:03:48;;;;;;;;;3.00;3.00;;;;;20.98;47.61;100859.31;5024530;28;45227;-70
2022/06/29 05:06:13;;;;;;;;;5.00;5.00;;;;;21.29;47.48;100911.38;5031373;28;45527;-73
2022/06/29 05:08:39;;;;;;;;;4.00;3.00;;;;;21.29;47.79;100916.81;5031276;28;44935;-77
2022/06/29 05:11:05;;;;;;;;;14.25;12.50;;;;;21.25;48.16;100917.78;5030156;28;45189;-72
2022/06/29 05:13:30;;;;;;;;;9.00;7.00;;;;;21.20;47.78;100894.31;5030458;28;45078;-71
2022/06/29 05:15:56;;;;;;;;;9.00;6.00;;;;;21.27;47.76;100917.78;5029806;28;45041;-72
2022/06/29 05:18:21;;;;;;;;;5.67;4.00;;;;;21.26;47.92;100913.25;5029153;28;45008;-71
2022/06/29 05:20:46;;;;;;;;;4.00;4.00;;;;;21.21;47.86;100917.84;5029243;28;45466;-70
2022/06/29 05:23:12;;;;;;;;;4.00;4.00;;;;;21.19;47.73;100914.28;5030099;28;45399;-76
2022/06/29 05:25:39;;;;;;;;;5.00;3.00;;;;;21.10;47.62;100891.75;5029380;28;45454;-71
2022/06/29 05:28:04;;;;;;;;;5.00;5.00;;;;;21.26;47.88;100907.81;5028028;28;45274;-70
2022/06/29 05:30:30;;;;;;;;;5.33;4.00;;;;;21.21;47.30;100906.97;5032251;28;45781;-71
2022/06/29 05:32:55;;;;;;;;;6.00;4.67;;;;;20.87;47.82;100840.47;5032466;28;45202;-70
2022/06/29 05:35:21;;;;;;;;;5.00;5.00;;;;;21.02;47.57;100863.78;5031863;28;45121;-72
2022/06/29 05:37:46;;;;;;;;;5.67;5.67;;;;;21.16;48.07;100898.91;5023958;28;45603;-70
2022/06/29 05:40:12;;;;;;;;;4.33;4.33;;;;;21.31;47.48;100919.50;5023463;28;46009;-70
2022/06/29 05:42:37;;;;;;;;;3.67;3.00;;;;;21.09;47.35;100884.50;5022797;28;45613;-70
2022/06/29 05:45:05;;;;;;;;;5.00;5.00;;;;;21.32;46.43;100914.03;5024171;28;45195;-70
2022/06/29 05:47:30;;;;;;;;;4.00;4.00;;;;;20.95;46.10;100848.50;5017626;28;45401;-69
2022/06/29 05:49:57;;;;;;;;;10.33;8.00;;;;;21.26;45.84;100929.53;5013274;28;46964;-70
2022/06/29 05:52:23;;;;;;;;;3.00;3.00;;;;;21.26;44.76;100927.72;5015568;28;45459;-70
2022/06/29 05:54:49;;;;;;;;;4.33;4.00;;;;;20.16;45.06;100759.06;5010920;28;46401;-71
2022/06/29 05:57:14;;;;;;;;;5.33;3.00;;;;;21.07;44.43;100904.44;5014166;28;45267;-71
2022/06/29 05:59:40;;;;;;;;;2.00;2.00;;;;;21.19;43.48;100920.59;5012831;28;45604;-70
2022/06/29 06:02:06;;;;;;;;;4.00;2.33;;;;;21.22;43.34;100933.22;5012092;28;45570;-72
2022/06/29 06:04:31;;;;;;;;;1.00;1.00;;;;;21.22;43.27;100927.78;5012533;28;46191;-72
2022/06/29 06:06:56;;;;;;;;;4.67;3.67;;;;;21.13;42.91;100897.09;5013521;28;45561;-72
2022/06/29 06:09:26;;;;;;;;;35.00;30.50;;;;;21.32;42.98;100913.16;5014560;28;45872;-71
2022/06/29 06:11:52;;;;;;;;;12.75;9.50;;;;;21.16;42.77;100871.72;5012638;28;45601;-71
2022/06/29 06:14:17;;;;;;;;;7.33;6.00;;;;;21.43;42.94;100913.91;5011417;28;46373;-71
2022/06/29 06:16:43;;;;;;;;;2.00;2.00;;;;;21.26;42.58;100889.66;5012434;28;45367;-71
2022/06/29 06:19:08;;;;;;;;;3.00;2.00;;;;;21.39;42.71;100912.13;5012795;28;45423;-72
2022/06/29 06:21:35;;;;;;;;;2.00;2.00;;;;;21.43;42.53;100915.69;5013702;28;45413;-70
2022/06/29 06:24:00;;;;;;;;;8.00;4.33;;;;;21.40;42.52;100892.19;5012807;28;45942;-72
2022/06/29 06:26:25;;;;;;;;;5.33;5.00;;;;;21.62;42.59;100927.22;5012141;28;45328;-72
2022/06/29 06:28:52;;;;;;;;;6.00;3.00;;;;;21.56;42.25;100927.31;5013156;28;45270;-71
2022/06/29 06:31:17;;;;;;;;;3.00;3.00;;;;;21.58;42.04;100942.69;5013129;28;45264;-72
2022/06/29 06:33:42;;;;;;;;;5.00;4.00;;;;;21.54;42.00;100928.22;5011263;28;45356;-71
2022/06/29 06:36:08;;;;;;;;;5.00;3.67;;;;;21.69;41.93;100939.78;5011288;28;45407;-71
2022/06/29 06:38:33;;;;;;;;;4.33;2.00;;;;;21.64;41.78;100931.69;5013102;28;45826;-72
2022/06/29 06:43:42;;;;;;;;;2.00;1.00;;;;;21.83;41.48;100928.69;5017480;28;45618;-71
2022/06/29 06:46:07;;;;;;;;;4.67;3.00;;;;;21.98;41.64;100925.69;5012631;28;49861;-71
2022/06/29 06:48:33;;;;;;;;;7.00;5.33;;;;;22.03;41.20;100936.47;5015128;28;45379;-73
2022/06/29 06:50:58;;;;;;;;;4.00;4.00;;;;;22.01;41.35;100922.91;5012708;28;45718;-71
2022/06/29 06:53:26;;;;;;;;;3.00;2.00;;;;;22.01;40.52;100924.72;5012390;28;46922;-71
2022/06/29 06:55:51;;;;;;;;;3.00;3.00;;;;;22.02;40.49;100912.91;5013443;28;45793;-71
2022/06/29 06:58:17;;;;;;;;;2.00;2.00;;;;;22.17;40.39;100923.50;5013949;28;45439;-72
2022/06/29 07:00:43;;;;;;;;;3.00;3.00;;;;;22.18;40.43;100917.13;5013319;28;45386;-71
2022/06/29 07:03:09;;;;;;;;;2.00;2.00;;;;;22.15;40.01;100905.41;5021695;28;47024;-71
2022/06/29 07:05:34;;;;;;;;;2.33;2.33;;;;;22.12;40.08;100895.47;5024480;28;45354;-73
2022/06/29 07:07:59;;;;;;;;;5.00;5.00;;;;;22.19;39.76;100902.63;5023935;28;45498;-73
2022/06/29 07:10:25;;;;;;;;;9.67;5.00;;;;;22.30;40.24;100907.88;5018371;28;45368;-72
2022/06/29 07:12:50;;;;;;;;;6.67;5.33;;;;;22.34;39.93;100916.88;5012822;28;46462;-71
2022/06/29 07:15:16;;;;;;;;;11.00;11.00;;;;;22.17;39.48;100884.50;5021632;28;45478;-71
2022/06/29 07:17:41;;;;;;;;;13.67;11.00;;;;;22.37;39.42;100922.25;5016927;28;45419;-72
2022/06/29 07:20:08;;;;;;;;;10.00;8.67;;;;;22.27;39.00;100894.28;5012763;28;45773;-71
2022/06/29 07:22:34;;;;;;;;;10.67;7.00;;;;;22.50;39.08;100922.91;5012201;28;45952;-70
2022/06/29 07:24:59;;;;;;;;;6.67;5.33;;;;;22.31;38.89;100865.25;5011638;28;45442;-71
2022/06/29 07:27:24;;;;;;;;;4.00;3.00;;;;;22.59;38.64;100922.75;5012066;28;45887;-70
2022/06/29 07:29:53;;;;;;;;;4.00;3.00;;;;;22.67;38.72;100914.38;5011726;28;45417;-78
2022/06/29 07:32:19;;;;;;;;;3.33;3.00;;;;;22.76;38.93;100916.94;5008635;28;45671;-70
2022/06/29 07:34:45;;;;;;;;;3.00;3.00;;;;;22.79;38.46;100909.59;5005423;28;45745;-72
2022/06/29 07:37:10;;;;;;;;;5.00;3.33;;;;;22.84;38.69;100894.97;5008007;28;45519;-71
2022/06/29 07:39:36;;;;;;;;;4.67;2.00;;;;;22.85;38.57;100881.31;5010835;28;45597;-71
2022/06/29 07:42:02;;;;;;;;;3.00;3.00;;;;;23.06;38.38;100879.91;5012352;28;48475;-72
2022/06/29 07:44:27;;;;;;;;;5.00;3.67;;;;;23.37;38.20;100909.22;5014591;28;45463;-71
2022/06/29 07:46:53;;;;;;;;;6.00;4.00;;;;;23.30;38.19;100886.66;5015163;28;45496;-72
2022/06/29 07:49:18;;;;;;;;;3.00;3.00;;;;;23.42;37.26;100882.72;5015290;28;45461;-73
2022/06/29 07:51:43;;;;;;;;;4.33;4.33;;;;;23.74;37.28;100908.28;5017008;28;46543;-73
2022/06/29 07:54:09;;;;;;;;;4.00;2.33;;;;;23.88;36.43;100897.06;5014303;28;45628;-73
2022/06/29 07:56:36;;;;;;;;;5.00;1.67;;;;;24.09;36.24;100911.97;5014515;28;45398;-71
2022/06/29 07:59:02;;;;;;;;;3.67;3.67;;;;;24.13;35.93;100913.66;5015112;28;45426;-72
2022/06/29 08:01:27;;;;;;;;;5.00;2.00;;;;;24.04;36.09;100903.91;5014785;28;45613;-72
2022/06/29 08:03:56;;;;;;;;;3.00;2.67;;;;;24.07;35.93;100911.09;5012695;28;45496;-71
2022/06/29 08:06:23;;;;;;;;;3.00;3.00;;;;;24.07;36.39;100909.28;5028646;28;45715;-71
2022/06/29 08:08:48;;;;;;;;;4.67;3.00;;;;;24.00;36.34;100876.72;5015312;28;45428;-72
2022/06/29 08:11:14;;;;;;;;;4.00;2.33;;;;;24.00;36.13;100890.38;5012029;28;46020;-71
2022/06/29 08:13:39;;;;;;;;;4.00;3.00;;;;;24.00;36.29;100895.84;5014732;28;45504;-71
2022/06/29 08:16:06;;;;;;;;;2.00;2.00;;;;;24.09;36.84;100915.59;5015284;28;45535;-71
2022/06/29 08:18:32;;;;;;;;;2.00;2.00;;;;;24.16;36.13;100899.06;5024801;28;45165;-71
2022/06/29 08:20:58;;;;;;;;;2.00;2.00;;;;;24.26;36.48;100890.53;5019253;28;45340;-71
2022/06/29 08:23:23;;;;;;;;;4.67;3.00;;;;;24.04;36.11;100854.78;5023895;28;45419;-71
2022/06/29 08:25:48;;;;;;;;;5.00;4.00;;;;;24.23;36.54;100879.72;5031079;28;45202;-71
2022/06/29 08:28:14;;;;;;;;;2.33;1.67;;;;;24.42;36.10;100895.59;5020834;28;45562;-72
2022/06/29 08:30:39;;;;;;;;;3.00;2.33;;;;;24.44;35.81;100899.16;5015750;28;46083;-71
2022/06/29 08:33:04;;;;;;;;;2.00;2.00;;;;;24.33;35.89;100872.16;5013606;28;45550;-71
2022/06/29 08:35:30;;;;;;;;;3.00;3.00;;;;;24.46;35.73;100887.25;5014968;28;45418;-73
2022/06/29 08:37:55;;;;;;;;;4.00;2.33;;;;;24.44;35.77;100891.84;5005955;28;45684;-72
2022/06/29 08:40:21;;;;;;;;;3.00;3.00;;;;;24.40;35.44;100900.19;5010516;28;45627;-75
2022/06/29 08:42:47;;;;;;;;;3.00;3.00;;;;;24.36;35.84;100895.75;5015915;28;45946;-71
2022/06/29 08:45:14;;;;;;;;;1.33;1.33;;;;;24.36;34.99;100885.72;5015085;28;45567;-72
2022/06/29 08:47:41;;;;;;;;;2.00;2.00;;;;;24.46;35.00;100891.81;5014011;28;45489;-72
2022/06/29 08:50:08;;;;;;;;;3.33;3.33;;;;;24.57;34.12;100899.75;5014225;28;46171;-72
2022/06/29 08:52:38;;;;;;;;;1.00;1.00;;;;;24.56;34.11;100882.44;5011988;28;45777;-73
2022/06/29 08:55:06;;;;;;;;;3.00;3.00;;;;;24.72;33.61;100890.19;5014185;28;45478;-71
2022/06/29 08:57:35;;;;;;;;;1.00;1.00;;;;;24.68;33.54;100891.22;5014254;28;45625;-72
2022/06/29 09:00:01;;;;;;;;;2.67;2.33;;;;;24.69;33.69;100869.31;5013685;28;46102;-72
2022/06/29 09:02:27;;;;;;;;;1.00;1.00;;;;;24.87;33.64;100883.38;5013831;28;45466;-72
2022/06/29 09:04:53;;;;;;;;;1.33;1.33;;;;;24.69;33.38;100858.38;5013314;28;45416;-71
2022/06/29 09:07:19;;;;;;;;;2.00;1.33;;;;;24.86;33.09;100876.09;5014110;28;45434;-72
2022/06/29 09:10:07;;;;;;;;;2.00;2.00;;;;;24.90;33.56;100884.16;5012991;28;45834;-72
2022/06/29 09:12:33;;;;;;;;;4.00;2.00;;;;;25.06;32.90;100900.06;5013440;28;45462;-71
2022/06/29 09:14:58;;;;;;;;;2.00;2.00;;;;;25.09;33.24;100897.25;5014321;28;45654;-72
2022/06/29 09:17:24;;;;;;;;;4.33;3.00;;;;;24.99;33.22;100877.50;5014388;28;45585;-71
2022/06/29 09:19:53;;;;;;;;;1.00;1.00;;;;;25.07;33.27;100883.63;5012752;28;45661;-71
2022/06/29 09:22:18;;;;;;;;;1.33;1.33;;;;;25.09;33.36;100902.72;5010691;28;45470;-70
2022/06/29 09:24:45;;;;;;;;;1.00;1.00;;;;;24.93;33.39;100873.13;5013451;28;45478;-71
2022/06/29 09:27:11;;;;;;;;;2.00;2.00;;;;;25.06;33.94;100900.06;5014104;28;45592;-71
2022/06/29 09:29:41;;;;;;;;;3.67;1.33;;;;;25.06;33.30;100900.06;5012113;28;46171;-71
2022/06/29 09:32:14;;;;;;;;;3.67;2.33;;;;;25.00;33.16;100896.59;5013942;28;45663;-72
2022/06/29 09:34:44;;;;;;;;;2.67;2.67;;;;;24.73;32.91;100848.25;5013225;28;45453;-71
2022/06/29 09:37:23;;;;;;;;;2.33;2.00;;;;;25.07;33.42;100900.03;5013331;28;45694;-71
2022/06/29 09:39:53;;;;;;;;;2.33;2.00;;;;;25.05;32.75;100892.84;5008325;28;45812;-71
2022/06/29 09:42:24;;;;;;;;;3.00;3.00;;;;;25.23;32.83;100902.25;5011424;28;45542;-71
2022/06/29 09:44:50;;;;;;;;;4.67;4.00;;;;;25.12;32.67;100887.09;5003843;28;45343;-71
2022/06/29 09:47:19;;;;;;;;;1.67;1.00;;;;;25.08;33.39;100876.31;5013398;28;45619;-71
2022/06/29 09:49:46;;;;;;;;;2.00;2.00;;;;;25.11;33.37;100879.88;5014124;28;45477;-71
2022/06/29 09:52:12;;;;;;;;;3.00;3.00;;;;;25.27;32.94;100912.22;5023398;28;45367;-71
2022/06/29 09:54:44;;;;;;;;;4.67;4.67;;;;;25.31;32.66;100908.41;5028984;28;45269;-70
2022/06/29 09:57:12;;;;;;;;;1.67;1.67;;;;;25.35;32.13;100902.78;5015772;28;45676;-71
2022/06/29 10:02:40;;;;;;;;;3.33;2.00;;;;;25.29;31.75;100886.63;5026551;28;45072;-72
2022/06/29 10:05:14;;;;;;;;;2.00;1.00;;;;;25.14;31.89;100866.06;5018429;28;45505;-76
2022/06/29 10:07:45;;;;;;;;;4.00;3.00;;;;;25.10;31.21;100838.91;5029866;28;45621;-78
2022/06/29 10:10:14;;;;;;;;;5.00;2.00;;;;;25.28;31.48;100871.13;5012488;28;45339;-76
2022/06/29 10:15:53;;;;;;;;;1.33;1.33;;;;;25.11;31.76;100838.84;5011439;28;45553;-76
2022/06/29 10:18:37;;;;;;;;;2.67;2.00;;;;;25.15;31.90;100842.38;5013465;28;45327;-78
2022/06/29 10:21:12;;;;;;;;;2.33;2.00;;;;;24.93;32.34;100806.63;5011539;28;46033;-75
2022/06/29 10:23:45;;;;;;;;;4.67;3.00;;;;;25.49;32.15;100885.94;5009996;28;45688;-76
2022/06/29 10:26:27;;;;;;;;;2.00;1.67;;;;;25.56;32.17;100884.78;5013817;28;45399;-76
2022/06/29 10:28:52;;;;;;;;;4.00;4.00;;;;;25.32;31.77;100837.25;5012486;28;45346;-76
2022/06/29 10:31:17;;;;;;;;;2.00;2.00;;;;;25.27;31.55;100827.44;5013464;28;46196;-76
2022/06/29 10:33:43;;;;;;;;;2.00;2.00;;;;;25.16;31.42;100809.50;5013436;28;45831;-76
2022/06/29 10:36:09;;;;;;;;;3.00;2.00;;;;;25.50;30.16;100884.97;5012566;28;47795;-76
2022/06/29 10:38:50;;;;;;;;;6.33;3.33;;;;;25.55;30.62;100876.63;5013419;28;45482;-77
2022/06/29 10:43:59;;;;;;;;;1.00;1.00;;;;;25.60;29.44;100857.31;5012808;28;45465;-78
2022/06/29 10:46:24;;;;;;;;;13.67;10.67;;;;;25.60;30.38;100860.06;5012275;28;46167;-75
2022/06/29 10:49:22;;;;;;;;;3.00;3.00;;;;;25.61;30.55;100860.00;5013258;28;45454;-76
2022/06/29 10:51:50;;;;;;;;;4.33;3.00;;;;;25.30;30.40;100808.19;4993996;28;46005;-74
2022/06/29 10:54:26;;;;;;;;;2.00;2.00;;;;;25.62;30.60;100860.91;5010461;28;45502;-74
2022/06/29 10:56:52;;;;;;;;;4.67;3.00;;;;;25.65;28.68;100863.53;5009935;28;45543;-73
2022/06/29 10:59:38;;;;;;;;;2.00;2.00;;;;;25.50;29.28;100830.28;5010670;28;46600;-73
2022/06/29 11:02:10;;;;;;;;;2.67;2.67;;;;;25.58;28.83;100846.44;5012081;28;45342;-74
2022/06/29 11:04:36;;;;;;;;;10.33;9.00;;;;;25.62;29.07;100850.84;5012249;28;45594;-73
2022/06/29 11:12:31;;;;;;;;;3.00;3.00;;;;;25.48;28.57;100813.03;5011252;28;45966;-73
2022/06/29 11:17:47;;;;;;;;;3.33;2.67;;;;;25.81;28.17;100850.22;5004601;28;45674;-73
2022/06/29 11:20:18;;;;;;;;;2.67;2.67;;;;;25.67;29.18;100823.31;5015820;28;45553;-73
2022/06/29 11:22:50;;;;;;;;;13.33;11.67;;;;;25.86;29.84;100848.22;5014302;28;46564;-76
2022/06/29 11:25:15;;;;;;;;;8.33;7.33;;;;;25.85;29.41;100825.38;5003343;28;45662;-73
2022/06/29 11:27:41;;;;;;;;;1.00;1.00;;;;;25.70;28.70;100795.84;5013749;28;46029;-74
2022/06/29 11:30:09;;;;;;;;;2.33;2.33;;;;;25.94;28.45;100836.03;5015829;28;45412;-72
2022/06/29 11:32:41;;;;;;;;;6.00;4.33;;;;;25.93;28.79;100825.13;5015626;28;46100;-75
2022/06/29 11:35:07;;;;;;;;;5.00;2.00;;;;;25.90;28.85;100819.75;5007643;28;45402;-71
2022/06/29 11:37:33;;;;;;;;;2.33;2.33;;;;;25.96;29.26;100822.31;5015736;28;45531;-76
2022/06/29 11:39:58;;;;;;;;;4.00;2.33;;;;;25.91;29.49;100819.69;5030928;28;45299;-72
2022/06/29 11:45:17;;;;;;;;;3.00;3.00;;;;;25.95;28.42;100823.22;5011831;28;45947;-76
2022/06/29 11:47:51;;;;;;;;;3.33;1.33;;;;;25.99;28.60;100824.94;5016611;28;45406;-74